createdAt,value
2024-03-13T00:00:11.165Z,89.61
2024-03-13T00:02:46.166Z,91.00
2024-03-13T00:05:12.944Z,89.67
2024-03-13T00:07:39.964Z,90.24
2024-03-13T00:10:09.539Z,90.67
2024-03-13T00:12:36.524Z,91.00
2024-03-13T00:15:06.876Z,91.24
2024-03-13T00:17:33.419Z,91.62
2024-03-13T00:20:00.532Z,90.43
2024-03-13T00:22:27.308Z,90.83
2024-03-13T00:24:55.613Z,90.32
2024-03-13T00:27:22.220Z,90.39
2024-03-13T00:29:49.262Z,91.18
2024-03-13T00:32:17.629Z,90.69
2024-03-13T00:34:47.416Z,91.28
2024-03-13T00:37:15.630Z,90.61
2024-03-13T00:39:42.986Z,90.18
2024-03-13T00:42:13.316Z,90.51
2024-03-13T00:44:40.594Z,89.61
2024-03-13T00:47:12.676Z,90.29
2024-03-13T00:49:39.547Z,90.60
2024-03-13T00:52:06.629Z,91.02
2024-03-13T00:54:33.273Z,90.10
2024-03-13T00:57:00.400Z,90.50
2024-03-13T00:59:30.852Z,90.68
2024-03-13T01:01:57.676Z,90.71
2024-03-13T01:04:27.634Z,89.94
2024-03-13T01:06:54.255Z,90.31
2024-03-13T01:09:21.435Z,89.95
2024-03-13T01:11:48.049Z,90.53
2024-03-13T01:14:15.034Z,89.90
2024-03-13T01:16:42.282Z,89.62
2024-03-13T01:19:08.759Z,89.29
2024-03-13T01:21:35.254Z,89.27
2024-03-13T01:24:01.821Z,89.53
2024-03-13T01:26:28.273Z,90.26
2024-03-13T01:28:54.878Z,90.53
2024-03-13T01:31:22.834Z,89.62
2024-03-13T01:33:49.283Z,90.38
2024-03-13T01:36:18.809Z,90.02
2024-03-13T01:38:45.203Z,89.95
2024-03-13T01:41:44.230Z,89.84
2024-03-13T01:44:29.260Z,90.95
2024-03-13T01:47:14.338Z,91.67
2024-03-13T01:49:59.233Z,90.98
2024-03-13T01:52:44.137Z,90.85
2024-03-13T01:55:12.908Z,92.44
2024-03-13T01:57:57.154Z,92.11
2024-03-13T02:00:43.551Z,92.65
2024-03-13T02:03:10.796Z,91.82
2024-03-13T02:05:38.046Z,92.20
2024-03-13T02:08:07.546Z,91.72
2024-03-13T02:10:34.095Z,91.95
2024-03-13T02:13:13.846Z,91.42
2024-03-13T02:15:42.304Z,92.11
2024-03-13T02:18:18.129Z,92.07
2024-03-13T02:20:47.568Z,91.78
2024-03-13T02:23:21.077Z,91.30
2024-03-13T02:25:47.462Z,91.74
2024-03-13T02:28:15.829Z,91.53
2024-03-13T02:30:43.463Z,91.31
2024-03-13T02:33:12.673Z,92.12
2024-03-13T02:35:39.679Z,90.92
2024-03-13T02:38:08.642Z,91.20
2024-03-13T02:40:35.076Z,90.96
2024-03-13T02:43:01.578Z,90.76
2024-03-13T02:45:28.361Z,91.50
2024-03-13T02:47:54.989Z,91.70
2024-03-13T02:50:21.469Z,91.27
2024-03-13T02:52:47.860Z,91.93
2024-03-13T02:55:15.144Z,92.58
2024-03-13T02:57:41.979Z,91.89
2024-03-13T03:00:08.612Z,92.38
2024-03-13T03:02:36.142Z,92.30
2024-03-13T03:05:04.417Z,92.52
2024-03-13T03:07:33.467Z,92.04
2024-03-13T03:10:00.844Z,91.56
2024-03-13T03:12:29.886Z,91.54
2024-03-13T03:14:56.292Z,91.83
2024-03-13T03:17:23.299Z,92.25
2024-03-13T03:19:52.561Z,91.31
2024-03-13T03:22:19.704Z,91.05
2024-03-13T03:24:46.829Z,91.56
2024-03-13T03:27:14.000Z,90.79
2024-03-13T03:29:43.045Z,90.67
2024-03-13T03:32:10.380Z,91.62
2024-03-13T03:34:36.841Z,91.91
2024-03-13T03:37:03.272Z,91.70
2024-03-13T03:39:30.432Z,90.86
2024-03-13T03:41:58.522Z,91.43
2024-03-13T03:44:24.955Z,91.64
2024-03-13T03:46:51.333Z,91.59
2024-03-13T03:49:17.753Z,92.30
2024-03-13T03:51:45.623Z,92.04
2024-03-13T03:54:12.423Z,92.34
2024-03-13T03:56:40.561Z,92.60
2024-03-13T03:59:11.050Z,92.57
2024-03-13T04:01:37.575Z,92.17
2024-03-13T04:04:07.119Z,92.43
2024-03-13T04:06:33.736Z,92.62
2024-03-13T04:09:00.276Z,92.12
2024-03-13T04:11:26.809Z,92.56
2024-03-13T04:13:53.190Z,92.46
2024-03-13T04:16:19.689Z,92.29
2024-03-13T04:18:46.155Z,93.11
2024-03-13T04:21:15.450Z,92.64
2024-03-13T04:23:47.453Z,93.17
2024-03-13T04:26:16.150Z,92.61
2024-03-13T04:28:45.753Z,93.08
2024-03-13T04:31:14.969Z,93.20
2024-03-13T04:33:42.657Z,93.08
2024-03-13T04:36:09.305Z,92.67
2024-03-13T04:38:35.680Z,93.25
2024-03-13T04:41:02.117Z,92.96
2024-03-13T04:43:28.751Z,93.44
2024-03-13T04:45:55.286Z,92.75
2024-03-13T04:48:21.693Z,92.67
2024-03-13T04:50:48.113Z,92.81
2024-03-13T04:53:16.104Z,93.00
2024-03-13T04:55:42.558Z,92.40
2024-03-13T04:58:09.035Z,92.59
2024-03-13T05:00:35.423Z,93.07
2024-03-13T05:03:01.832Z,92.95
2024-03-13T05:05:28.208Z,92.72
2024-03-13T05:07:56.106Z,92.80
2024-03-13T05:10:23.907Z,92.97
2024-03-13T05:12:50.329Z,92.57
2024-03-13T05:15:16.791Z,92.73
2024-03-13T05:17:43.189Z,92.75
2024-03-13T05:20:12.364Z,92.88
2024-03-13T05:22:38.985Z,93.32
2024-03-13T05:25:12.528Z,92.93
2024-03-13T05:27:38.967Z,92.85
2024-03-13T05:30:07.333Z,93.47
2024-03-13T05:32:33.712Z,92.97
2024-03-13T05:35:00.178Z,93.58
2024-03-13T05:37:26.786Z,93.82
2024-03-13T05:39:53.674Z,93.71
2024-03-13T05:42:20.185Z,94.17
2024-03-13T05:44:46.558Z,93.74
2024-03-13T05:47:13.015Z,93.99
2024-03-13T05:49:39.491Z,93.66
2024-03-13T05:52:06.146Z,93.77
2024-03-13T05:54:33.341Z,93.56
2024-03-13T05:56:59.868Z,93.87
2024-03-13T05:59:27.081Z,93.27
2024-03-13T06:01:56.211Z,93.08
2024-03-13T06:04:23.487Z,93.40
2024-03-13T06:06:49.925Z,93.07
2024-03-13T06:09:19.650Z,93.07
2024-03-13T06:11:46.084Z,93.20
2024-03-13T06:14:12.536Z,92.66
2024-03-13T06:16:39.010Z,93.06
2024-03-13T06:19:06.106Z,93.40
2024-03-13T06:21:32.566Z,93.42
2024-03-13T06:24:01.808Z,93.18
2024-03-13T06:26:29.065Z,93.12
2024-03-13T06:29:21.595Z,93.25
2024-03-13T06:31:48.031Z,92.85
2024-03-13T06:34:14.459Z,92.46
2024-03-13T06:36:40.863Z,92.53
2024-03-13T06:39:13.092Z,92.56
2024-03-13T06:41:39.477Z,92.68
2024-03-13T06:44:06.635Z,92.32
2024-03-13T06:46:34.432Z,92.38
2024-03-13T06:49:00.864Z,92.15
2024-03-13T06:51:27.351Z,92.27
2024-03-13T06:53:53.733Z,92.45
2024-03-13T06:56:20.091Z,92.39
2024-03-13T06:58:46.990Z,92.42
2024-03-13T07:01:17.056Z,92.12
2024-03-13T07:03:43.698Z,91.96
2024-03-13T07:06:12.895Z,91.49
2024-03-13T07:08:39.819Z,90.73
2024-03-13T07:11:09.824Z,91.18
2024-03-13T07:13:36.504Z,90.81
2024-03-13T07:16:03.097Z,91.11
2024-03-13T07:18:30.018Z,90.72
2024-03-13T07:20:56.517Z,90.05
2024-03-13T07:23:23.081Z,90.40
2024-03-13T07:25:56.444Z,89.70
2024-03-13T07:28:23.100Z,89.34
2024-03-13T07:30:49.723Z,88.48
2024-03-13T07:33:16.594Z,88.52
2024-03-13T07:35:43.142Z,88.75
2024-03-13T07:38:10.932Z,88.12
2024-03-13T07:40:41.079Z,87.58
2024-03-13T07:43:11.008Z,87.55
2024-03-13T07:45:38.579Z,86.72
2024-03-13T07:48:11.835Z,86.69
2024-03-13T07:50:40.348Z,84.59
2024-03-13T07:53:07.190Z,83.57
2024-03-13T07:55:34.029Z,83.66
2024-03-13T07:58:01.537Z,83.04
2024-03-13T08:00:30.681Z,82.73
2024-03-13T08:02:57.313Z,82.20
2024-03-13T08:05:23.869Z,82.52
2024-03-13T09:08:06.305Z,74.11
2024-03-13T09:10:33.060Z,73.64
2024-03-13T09:12:59.711Z,72.63
2024-03-13T09:15:26.159Z,71.78
2024-03-13T09:17:52.744Z,72.91
2024-03-13T09:20:19.665Z,71.73
2024-03-13T09:22:46.135Z,71.53
2024-03-13T09:25:15.824Z,71.78
2024-03-13T09:27:42.289Z,70.75
2024-03-13T09:30:09.718Z,72.99
2024-03-13T09:32:37.230Z,72.63
2024-03-13T09:35:05.296Z,70.85
2024-03-13T09:37:32.671Z,70.09
2024-03-13T09:39:59.483Z,70.41
2024-03-13T09:42:28.431Z,70.22
2024-03-13T09:44:57.052Z,70.09
2024-03-13T09:47:28.050Z,70.12
2024-03-13T09:49:57.035Z,70.70
2024-03-13T09:52:25.492Z,71.42
2024-03-13T09:54:52.615Z,69.94
2024-03-13T09:57:20.910Z,71.83
2024-03-13T09:59:48.029Z,70.65
2024-03-13T10:02:22.663Z,69.81
2024-03-13T10:04:49.953Z,70.30
2024-03-13T10:07:22.903Z,71.84
2024-03-13T10:09:49.783Z,71.15
2024-03-13T10:12:23.405Z,70.76
2024-03-13T10:14:53.618Z,70.38
2024-03-13T10:17:24.384Z,71.55
2024-03-13T10:19:53.754Z,71.98
2024-03-13T10:22:21.430Z,72.59
2024-03-13T10:24:53.202Z,71.65
2024-03-13T10:27:21.691Z,74.01
2024-03-13T10:29:49.779Z,74.29
2024-03-13T10:32:18.874Z,72.65
2024-03-13T10:34:47.713Z,73.21
2024-03-13T10:37:15.228Z,73.36
2024-03-13T10:39:42.725Z,72.81
2024-03-13T10:42:10.207Z,73.62
2024-03-13T10:44:37.087Z,72.84
2024-03-13T10:47:03.769Z,72.76
2024-03-13T10:49:30.542Z,72.94
2024-03-13T10:52:00.112Z,73.24
2024-03-13T10:54:27.871Z,72.30
2024-03-13T10:56:54.306Z,73.01
2024-03-13T10:59:24.667Z,72.29
2024-03-13T11:01:53.422Z,72.25
2024-03-13T11:04:21.451Z,72.53
2024-03-13T11:06:48.036Z,72.65
2024-03-13T11:09:23.775Z,72.99
2024-03-13T11:11:53.275Z,72.44
2024-03-13T11:14:28.029Z,72.47
2024-03-13T11:16:58.218Z,72.18
2024-03-13T11:19:33.487Z,71.74
2024-03-13T11:22:04.789Z,71.00
2024-03-13T11:24:33.005Z,71.37
2024-03-13T11:27:12.271Z,71.19
2024-03-13T11:29:46.277Z,70.41
2024-03-13T11:32:14.163Z,71.22
2024-03-13T11:34:43.777Z,73.79
2024-03-13T11:37:12.312Z,73.45
2024-03-13T11:39:40.455Z,73.79
2024-03-13T11:42:17.362Z,74.61
2024-03-13T11:44:46.971Z,73.48
2024-03-13T11:47:16.279Z,73.94
2024-03-13T11:49:42.711Z,72.97
2024-03-13T11:52:11.056Z,72.43
2024-03-13T11:54:44.678Z,72.89
2024-03-13T11:57:16.051Z,73.21
2024-03-13T11:59:44.892Z,73.69
2024-03-13T12:02:29.867Z,72.96
2024-03-13T12:05:13.003Z,73.49
2024-03-13T12:07:45.712Z,73.76
2024-03-13T12:10:19.373Z,74.03
2024-03-13T12:12:46.738Z,74.73
2024-03-13T12:15:21.147Z,75.06
2024-03-13T12:17:50.935Z,73.77
2024-03-13T12:20:23.853Z,74.19
2024-03-13T12:22:51.275Z,74.32
2024-03-13T12:25:20.844Z,74.60
2024-03-13T12:27:48.796Z,74.72
2024-03-13T12:30:16.430Z,75.40
2024-03-13T12:32:43.443Z,74.13
2024-03-13T12:35:11.717Z,74.28
2024-03-13T12:37:40.974Z,74.59
2024-03-13T12:40:13.265Z,74.95
2024-03-13T12:42:42.870Z,75.11
2024-03-13T12:45:12.642Z,75.94
2024-03-13T12:47:39.656Z,76.12
2024-03-13T12:50:07.642Z,76.56
2024-03-13T12:52:36.532Z,75.90
2024-03-13T12:55:05.541Z,75.63
2024-03-13T12:57:37.717Z,76.12
2024-03-13T13:00:15.803Z,76.92
2024-03-13T13:02:46.020Z,75.91
2024-03-13T13:05:13.885Z,76.41
2024-03-13T13:07:51.133Z,76.32
2024-03-13T13:10:21.746Z,76.95
2024-03-13T13:12:51.784Z,75.79
2024-03-13T13:15:18.813Z,75.68
2024-03-13T13:17:45.620Z,76.02
2024-03-13T13:20:16.981Z,76.37
2024-03-13T13:22:46.721Z,75.00
2024-03-13T13:25:21.312Z,75.65
2024-03-13T13:27:49.228Z,74.98
2024-03-13T13:30:16.942Z,74.71
2024-03-13T13:32:43.621Z,75.33
2024-03-13T13:35:12.031Z,75.16
2024-03-13T13:37:39.655Z,74.79
2024-03-13T13:40:23.888Z,75.26
2024-03-13T13:42:53.302Z,75.41
2024-03-13T13:45:26.373Z,74.61
2024-03-13T13:47:54.129Z,74.97
2024-03-13T13:50:21.999Z,75.54
2024-03-13T13:52:48.692Z,75.15
2024-03-13T13:55:19.430Z,76.23
2024-03-13T13:57:52.710Z,77.88
2024-03-13T14:00:22.376Z,78.71
2024-03-13T14:02:50.208Z,78.93
2024-03-13T14:05:18.360Z,78.99
2024-03-13T14:07:45.678Z,80.44
2024-03-13T14:10:13.337Z,82.44
2024-03-13T14:12:42.048Z,84.55
2024-03-13T14:15:12.443Z,87.00
2024-03-13T14:17:39.562Z,90.04
2024-03-13T14:20:27.274Z,91.15
2024-03-13T14:22:55.637Z,92.00
2024-03-13T14:25:23.696Z,91.79
2024-03-13T14:27:50.488Z,92.09
2024-03-13T14:30:18.497Z,91.00
2024-03-13T14:32:45.774Z,92.71
2024-03-13T14:35:12.656Z,91.95
2024-03-13T14:37:39.149Z,91.71
2024-03-13T14:40:07.237Z,91.76
2024-03-13T14:42:34.847Z,91.04
2024-03-13T14:45:02.945Z,90.28
2024-03-13T14:47:29.544Z,90.91
2024-03-13T14:49:56.111Z,90.86
2024-03-13T14:52:22.889Z,89.90
2024-03-13T14:54:50.027Z,89.46
2024-03-13T14:57:16.667Z,89.77
2024-03-13T14:59:43.201Z,89.07
2024-03-13T15:02:09.648Z,88.35
2024-03-13T15:04:36.005Z,89.22
2024-03-13T15:07:05.293Z,88.98
2024-03-13T15:09:31.853Z,90.13
2024-03-13T15:11:58.336Z,88.86
2024-03-13T15:14:24.839Z,89.57
2024-03-13T15:16:53.893Z,88.88
2024-03-13T15:19:20.475Z,89.76
2024-03-13T15:21:47.009Z,90.75
2024-03-13T15:24:14.270Z,90.72
2024-03-13T15:26:42.589Z,91.32
2024-03-13T15:29:09.163Z,90.08
2024-03-13T15:31:35.880Z,90.77
2024-03-13T15:34:02.445Z,90.59
2024-03-13T15:36:29.109Z,92.30
2024-03-13T15:38:55.800Z,91.93
2024-03-13T15:41:22.249Z,93.84
2024-03-13T15:43:48.639Z,94.32
2024-03-13T15:46:15.038Z,94.23
2024-03-13T15:48:42.242Z,93.99
2024-03-13T15:51:08.786Z,93.91
2024-03-13T15:53:35.306Z,94.92
2024-03-13T15:56:01.789Z,95.30
2024-03-13T15:58:28.167Z,95.32
2024-03-13T16:00:55.003Z,94.25
2024-03-13T16:03:21.900Z,94.76
2024-03-13T16:05:50.111Z,94.90
2024-03-13T16:08:36.003Z,95.20
2024-03-13T16:11:02.440Z,95.25
2024-03-13T16:13:28.909Z,95.20
2024-03-13T16:15:55.306Z,95.34
2024-03-13T16:18:21.868Z,93.81
2024-03-13T16:20:49.349Z,93.72
2024-03-13T16:23:15.776Z,95.04
2024-03-13T16:25:42.743Z,93.67
2024-03-13T16:28:09.975Z,93.65
2024-03-13T16:30:36.339Z,93.42
2024-03-13T16:33:03.651Z,93.97
2024-03-13T16:35:30.117Z,93.46
2024-03-13T16:37:56.617Z,93.47
2024-03-13T16:40:23.045Z,94.91
2024-03-13T16:42:49.415Z,94.96
2024-03-13T16:45:18.759Z,93.99
2024-03-13T16:47:45.492Z,94.13
2024-03-13T16:50:16.077Z,95.40
2024-03-13T16:52:43.590Z,93.78
2024-03-13T16:55:10.145Z,95.38
2024-03-13T16:57:36.547Z,95.25
2024-03-13T17:00:06.450Z,93.86
2024-03-13T17:02:32.881Z,93.74
2024-03-13T17:04:59.365Z,94.14
2024-03-13T17:07:26.999Z,95.12
2024-03-13T17:09:53.438Z,93.98
2024-03-13T17:12:20.202Z,94.60
2024-03-13T17:14:47.107Z,93.94
2024-03-13T17:17:13.533Z,94.57
2024-03-13T17:19:40.029Z,95.41
2024-03-13T17:22:06.988Z,95.35
2024-03-13T17:24:33.436Z,94.42
2024-03-13T17:26:59.913Z,95.67
2024-03-13T17:29:27.642Z,94.48
2024-03-13T17:31:55.159Z,96.43
2024-03-13T17:34:21.689Z,96.75
2024-03-13T17:36:49.737Z,95.71
2024-03-13T17:39:19.414Z,96.27
2024-03-13T17:41:46.808Z,96.70
2024-03-13T17:44:18.621Z,95.89
2024-03-13T17:46:46.250Z,95.59
2024-03-13T17:49:12.618Z,96.44
2024-03-13T17:51:39.014Z,95.83
2024-03-13T17:54:06.160Z,96.50
2024-03-13T17:56:33.089Z,97.60
2024-03-13T17:59:02.822Z,97.73
2024-03-13T18:01:32.313Z,96.99
2024-03-13T18:03:58.788Z,96.81
2024-03-13T18:06:28.204Z,96.75
2024-03-13T18:08:54.720Z,97.64
2024-03-13T18:11:21.350Z,97.31
2024-03-13T18:13:47.893Z,96.64
2024-03-13T18:16:14.413Z,97.87
2024-03-13T18:18:41.090Z,97.13
2024-03-13T18:21:10.355Z,97.84
2024-03-13T18:23:36.857Z,97.88
2024-03-13T18:26:03.383Z,97.70
2024-03-13T18:28:30.052Z,96.72
2024-03-13T18:30:56.624Z,97.28
2024-03-13T18:33:23.125Z,96.78
2024-03-13T18:35:49.599Z,96.46
2024-03-13T18:38:16.019Z,96.94
2024-03-13T18:40:42.519Z,97.59
2024-03-13T18:43:08.884Z,97.39
2024-03-13T18:45:35.798Z,97.59
2024-03-13T18:48:02.461Z,95.98
2024-03-13T18:50:30.815Z,96.65
2024-03-13T18:52:57.869Z,97.76
2024-03-13T18:55:26.795Z,96.33
2024-03-13T18:57:53.548Z,98.17
2024-03-13T19:00:22.634Z,98.49
2024-03-13T19:02:49.646Z,96.74
2024-03-13T19:05:23.583Z,98.06
2024-03-13T19:07:52.422Z,97.97
2024-03-13T19:10:24.771Z,98.23
2024-03-13T19:12:56.406Z,99.06
2024-03-13T19:15:23.044Z,98.56
2024-03-13T19:17:49.739Z,97.75
2024-03-13T19:20:16.282Z,97.43
2024-03-13T19:22:44.008Z,98.47
2024-03-13T19:25:13.607Z,97.68
2024-03-13T19:27:40.014Z,97.63
2024-03-13T19:30:08.153Z,98.29
2024-03-13T19:32:35.131Z,98.59
2024-03-13T19:35:01.832Z,98.15
2024-03-13T19:37:28.247Z,98.59
2024-03-13T19:39:59.366Z,97.45
2024-03-13T19:42:25.929Z,97.93
2024-03-13T19:44:53.076Z,98.11
2024-03-13T19:47:20.062Z,98.66
2024-03-13T19:49:46.679Z,97.78
2024-03-13T19:52:13.175Z,97.53
2024-03-13T19:54:39.580Z,99.07
2024-03-13T19:57:06.597Z,97.58
2024-03-13T19:59:33.074Z,97.97
2024-03-13T20:01:59.574Z,97.63
2024-03-13T20:04:26.102Z,99.05
2024-03-13T20:06:54.954Z,98.34
2024-03-13T20:09:21.354Z,98.48
2024-03-13T20:11:47.855Z,97.37
2024-03-13T20:14:16.926Z,99.11
2024-03-13T20:16:44.816Z,98.25
2024-03-13T20:19:11.378Z,97.88
2024-03-13T20:21:38.569Z,98.81
2024-03-13T20:24:05.540Z,98.17
2024-03-13T20:26:32.402Z,97.60
2024-03-13T20:28:58.809Z,97.33
2024-03-13T20:31:25.391Z,97.24
2024-03-13T20:33:52.597Z,97.15
2024-03-13T20:36:20.005Z,98.13
2024-03-13T20:38:46.936Z,97.44
2024-03-13T20:41:14.333Z,97.95
2024-03-13T20:43:41.024Z,98.68
2024-03-13T20:46:12.915Z,97.88
2024-03-13T20:48:39.414Z,97.52
2024-03-13T20:51:06.024Z,98.56
2024-03-13T20:53:32.625Z,97.00
2024-03-13T20:56:00.290Z,96.84
2024-03-13T20:58:26.996Z,97.16
2024-03-13T21:00:53.763Z,98.37
2024-03-13T21:03:20.270Z,98.34
2024-03-13T21:05:47.042Z,96.69
2024-03-13T21:08:14.150Z,96.55
2024-03-13T21:10:43.350Z,97.10
2024-03-13T21:13:10.543Z,97.94
2024-03-13T21:15:42.778Z,97.55
2024-03-13T21:18:13.234Z,97.17
2024-03-13T21:20:39.808Z,97.12
2024-03-13T21:23:06.317Z,97.75
2024-03-13T21:25:33.161Z,97.79
2024-03-13T21:27:59.770Z,97.32
2024-03-13T21:30:26.388Z,97.69
2024-03-13T21:32:53.132Z,97.47
2024-03-13T21:35:19.830Z,97.08
2024-03-13T21:37:46.435Z,96.38
2024-03-13T21:40:18.651Z,96.97
2024-03-13T21:42:46.152Z,96.95
2024-03-13T21:45:12.721Z,96.17
2024-03-13T21:47:39.515Z,96.98
2024-03-13T21:50:06.812Z,97.07
2024-03-13T21:52:33.290Z,97.89
2024-03-13T21:54:59.710Z,96.80
2024-03-13T21:57:26.439Z,97.89
2024-03-13T21:59:53.012Z,97.34
2024-03-13T22:02:19.510Z,96.99
2024-03-13T22:04:45.896Z,96.71
2024-03-13T22:07:13.084Z,97.78
2024-03-13T22:09:39.506Z,97.54
2024-03-13T22:12:07.094Z,97.01
2024-03-13T22:14:33.530Z,96.22
2024-03-13T22:17:00.303Z,96.97
2024-03-13T22:19:26.923Z,97.53
2024-03-13T22:21:53.710Z,96.08
2024-03-13T22:24:20.340Z,97.15
2024-03-13T22:26:47.215Z,96.20
2024-03-13T22:29:13.833Z,96.92
2024-03-13T22:31:43.119Z,96.65
2024-03-13T22:34:10.009Z,96.22
2024-03-13T22:36:36.468Z,96.73
2024-03-13T22:39:06.374Z,96.75
2024-03-13T22:41:32.986Z,95.27
2024-03-13T22:43:59.537Z,95.94
2024-03-13T22:46:25.934Z,96.53
2024-03-13T22:48:52.504Z,95.38
2024-03-13T22:51:19.041Z,97.01
2024-03-13T22:53:47.084Z,96.77
2024-03-13T22:56:13.711Z,96.38
2024-03-13T22:58:40.205Z,96.95
2024-03-13T23:01:10.238Z,95.39
2024-03-13T23:03:37.659Z,95.78
2024-03-13T23:06:04.599Z,95.11
2024-03-13T23:08:31.588Z,95.58
2024-03-13T23:10:58.009Z,95.01
2024-03-13T23:13:24.620Z,94.48
2024-03-13T23:15:51.067Z,95.60
2024-03-13T23:18:18.515Z,94.96
2024-03-13T23:20:45.843Z,94.95
2024-03-13T23:23:12.451Z,95.90
2024-03-13T23:25:39.000Z,95.87
2024-03-13T23:28:07.491Z,94.61
2024-03-13T23:30:34.316Z,94.91
2024-03-13T23:33:00.956Z,95.45
2024-03-13T23:35:27.513Z,95.35
2024-03-13T23:37:54.031Z,95.37
2024-03-13T23:40:20.523Z,95.65
2024-03-13T23:42:52.011Z,94.97
2024-03-13T23:45:18.491Z,94.59
2024-03-13T23:47:48.106Z,95.05
2024-03-13T23:50:16.790Z,95.70
2024-03-13T23:52:46.277Z,95.04
2024-03-13T23:55:13.687Z,95.35
2024-03-13T23:57:43.628Z,95.75
